createdAt,value
2018-12-13T17:05:28.876Z,21.99
2018-12-13T17:06:28.540Z,21.98
2018-12-13T17:07:59.022Z,22.06
2018-12-13T17:08:58.992Z,22.07
2018-12-13T17:10:29.540Z,22.08
2018-12-13T17:11:29.529Z,22.11
2018-12-13T17:13:00.001Z,22.22
2018-12-13T17:13:59.972Z,22.23
2018-12-13T17:15:30.432Z,22.18
2018-12-13T17:16:30.425Z,22.13
2018-12-13T17:18:00.896Z,22.17
2018-12-13T17:19:00.869Z,22.20
2018-12-13T17:20:31.330Z,22.13
2018-12-13T17:21:31.319Z,22.15
2018-12-13T17:23:01.790Z,22.15
2018-12-13T17:24:01.766Z,22.17
2018-12-13T17:25:32.222Z,22.13
2018-12-13T17:26:32.210Z,22.13
2018-12-13T17:28:02.695Z,22.18
2018-12-13T17:29:02.661Z,22.18
2018-12-13T17:30:33.118Z,22.20
2018-12-13T17:31:33.108Z,22.18
2018-12-13T17:33:03.574Z,22.22
2018-12-13T17:34:03.552Z,22.20
2018-12-13T17:35:34.012Z,22.15
2018-12-13T17:36:34.001Z,22.15
2018-12-13T17:38:04.472Z,22.17
2018-12-13T17:39:04.448Z,22.14
2018-12-13T17:40:34.907Z,22.20
2018-12-13T17:41:34.901Z,22.17
2018-12-13T17:43:10.260Z,22.23
2018-12-13T17:44:10.242Z,22.23
2018-12-13T17:45:44.253Z,22.18
2018-12-13T17:46:44.241Z,22.25
2018-12-13T17:48:19.301Z,22.23
2018-12-13T17:49:19.283Z,22.18
2018-12-13T17:50:49.750Z,22.22
2018-12-13T17:51:49.753Z,22.17
2018-12-13T17:53:20.213Z,22.29
2018-12-13T17:54:20.182Z,22.28
2018-12-13T17:55:50.636Z,22.36
2018-12-13T17:56:50.631Z,22.36
2018-12-13T17:58:21.102Z,22.35
2018-12-13T17:59:21.077Z,22.39
2018-12-13T18:00:51.540Z,22.43
2018-12-13T18:01:51.523Z,22.44
2018-12-13T18:03:22.005Z,22.48
2018-12-13T18:04:21.979Z,22.50
2018-12-13T18:05:52.439Z,22.55
2018-12-13T18:06:52.429Z,22.51
2018-12-13T18:08:22.897Z,22.59
2018-12-13T18:09:22.871Z,22.55
2018-12-13T18:10:53.331Z,22.60
2018-12-13T18:11:53.333Z,22.62
2018-12-13T18:13:23.908Z,22.60
2018-12-13T18:14:23.765Z,22.69
2018-12-13T18:15:54.231Z,22.83
2018-12-13T18:16:54.207Z,22.73
2018-12-13T18:18:24.715Z,22.75
2018-12-13T18:19:24.652Z,22.81
2018-12-13T18:20:55.164Z,22.83
2018-12-13T18:21:55.153Z,22.76
2018-12-13T18:23:25.621Z,22.85
2018-12-13T18:24:25.598Z,22.80
2018-12-13T18:25:56.057Z,22.83
2018-12-13T18:26:56.044Z,22.80
2018-12-13T18:28:26.528Z,22.85
2018-12-13T18:29:26.505Z,22.87
2018-12-13T18:30:26.493Z,22.83
2018-12-13T18:31:26.483Z,22.88
2018-12-13T18:32:26.474Z,22.85
2018-12-13T18:33:26.461Z,22.84
2018-12-13T18:34:26.454Z,22.83
2018-12-13T18:35:26.437Z,22.90
2018-12-13T18:36:26.430Z,22.84
2018-12-13T18:37:26.421Z,22.87
2018-12-13T18:38:26.408Z,22.91
2018-12-13T18:39:26.397Z,22.81
2018-12-13T18:40:26.406Z,22.90
2018-12-13T18:41:26.373Z,22.88
2018-12-13T18:42:26.362Z,22.91
2018-12-13T18:43:26.353Z,22.88
2018-12-13T18:44:26.339Z,22.90
2018-12-13T18:45:26.347Z,22.91
2018-12-13T18:46:04.523Z,22.88
2018-12-13T18:47:04.500Z,22.93
2018-12-13T18:48:04.491Z,22.93
2018-12-13T18:49:04.474Z,22.94
2018-12-13T18:50:04.464Z,22.90
2018-12-13T18:51:04.460Z,22.87
2018-12-13T18:52:04.439Z,22.93
2018-12-13T18:53:04.428Z,22.90
2018-12-13T18:54:04.417Z,22.81
2018-12-13T18:55:04.411Z,22.93
2018-12-13T18:56:04.402Z,22.90
2018-12-13T18:57:04.395Z,22.87
2018-12-13T18:58:04.377Z,22.90
2018-12-13T18:59:04.364Z,22.91
2018-12-13T19:00:04.481Z,22.85
2018-12-13T19:01:04.346Z,22.84
2018-12-13T19:02:04.338Z,22.83
2018-12-13T19:03:04.334Z,22.83
2018-12-13T19:04:04.313Z,22.84
2018-12-13T19:05:04.303Z,22.87
2018-12-13T19:06:04.301Z,22.81
2018-12-13T19:07:04.298Z,22.80
2018-12-13T19:08:04.276Z,22.88
2018-12-13T19:09:04.274Z,22.83
2018-12-13T19:10:04.248Z,22.84
2018-12-13T19:11:04.238Z,22.83
2018-12-13T19:12:04.229Z,22.76
2018-12-13T19:13:04.223Z,22.72
2018-12-13T19:14:04.429Z,22.80
2018-12-13T19:15:04.202Z,22.72
2018-12-13T19:16:04.185Z,22.73
2018-12-13T19:17:04.173Z,22.83
2018-12-13T19:18:04.162Z,22.75
2018-12-13T19:19:04.158Z,22.70
2018-12-13T19:20:04.149Z,22.80
2018-12-13T19:21:04.142Z,22.70
2018-12-13T19:22:04.122Z,22.69
2018-12-13T19:23:04.137Z,22.75
2018-12-13T19:24:04.104Z,22.62
2018-12-13T19:25:04.094Z,22.70
2018-12-13T19:26:04.091Z,22.70
2018-12-13T19:27:04.078Z,22.73
2018-12-13T19:28:04.057Z,22.78
2018-12-13T19:29:04.045Z,22.72
2018-12-13T19:30:04.035Z,22.69
2018-12-13T19:31:04.023Z,22.69
2018-12-13T19:32:04.020Z,22.60
2018-12-13T19:33:04.006Z,22.60
2018-12-13T19:34:03.992Z,22.48
2018-12-13T19:35:03.982Z,22.54
2018-12-13T19:36:03.972Z,22.51
2018-12-13T19:37:03.960Z,22.44
2018-12-13T19:38:03.953Z,22.48
2018-12-13T19:39:03.939Z,22.47
2018-12-13T19:40:03.929Z,22.47
2018-12-13T19:41:03.925Z,22.41
2018-12-13T19:42:03.907Z,22.29
2018-12-13T19:43:03.899Z,22.38
2018-12-13T19:44:03.888Z,22.36
2018-12-13T19:45:03.875Z,22.45
2018-12-13T19:46:03.865Z,22.30
2018-12-13T19:47:03.854Z,22.39
2018-12-13T19:48:03.843Z,22.38
2018-12-13T19:49:03.835Z,22.35
2018-12-13T19:50:03.825Z,22.47
2018-12-13T19:51:03.816Z,22.35
2018-12-13T19:52:03.801Z,22.39
2018-12-13T19:53:03.793Z,22.35
2018-12-13T19:54:03.782Z,22.33
2018-12-13T19:55:03.783Z,22.35
2018-12-13T19:56:03.762Z,22.47
2018-12-13T19:57:03.748Z,22.33
2018-12-13T19:58:03.737Z,22.35
2018-12-13T19:59:03.754Z,22.47
2018-12-13T20:00:03.719Z,22.38
2018-12-13T20:01:03.759Z,22.32
2018-12-13T20:02:03.700Z,22.35
2018-12-13T20:03:03.684Z,22.39
2018-12-13T20:04:03.674Z,22.32
2018-12-13T20:05:03.663Z,22.48
2018-12-13T20:06:03.657Z,22.47
2018-12-13T20:07:03.642Z,22.43
2018-12-13T20:08:03.635Z,22.48
2018-12-13T20:09:03.628Z,22.48
2018-12-13T20:10:03.611Z,22.48
2018-12-13T20:11:03.601Z,22.44
2018-12-13T20:12:03.593Z,22.48
2018-12-13T20:13:03.580Z,22.48
2018-12-13T20:14:03.572Z,22.48
2018-12-13T20:15:03.558Z,22.39
2018-12-13T20:16:03.550Z,22.44
2018-12-13T20:17:03.537Z,22.43
2018-12-13T20:18:03.599Z,22.43
2018-12-13T20:19:03.516Z,22.48
2018-12-13T20:20:03.506Z,22.47
2018-12-13T20:21:03.501Z,22.45
2018-12-13T20:22:03.485Z,22.44
2018-12-13T20:23:03.503Z,22.44
2018-12-13T20:24:03.462Z,22.44
2018-12-13T20:25:03.451Z,22.48
2018-12-13T20:26:03.521Z,22.45
2018-12-13T20:27:03.461Z,22.50
2018-12-13T20:28:03.420Z,22.50
2018-12-13T20:29:03.441Z,22.48
2018-12-13T20:30:03.401Z,22.54
2018-12-13T20:31:03.387Z,22.51
2018-12-13T20:32:03.376Z,22.51
2018-12-13T20:33:03.585Z,22.47
2018-12-13T20:34:03.356Z,22.55
2018-12-13T20:35:04.632Z,22.57
2018-12-13T20:36:03.334Z,22.45
2018-12-13T20:37:03.324Z,22.57
2018-12-13T20:38:03.312Z,22.45
2018-12-13T20:39:03.402Z,22.59
2018-12-13T20:40:03.309Z,22.59
2018-12-13T20:41:03.282Z,22.55
2018-12-13T20:42:03.271Z,22.59
2018-12-13T20:43:03.292Z,22.59
2018-12-13T20:44:03.251Z,22.62
2018-12-13T20:45:03.323Z,22.60
2018-12-13T20:46:03.231Z,22.59
2018-12-13T20:47:03.217Z,22.55
2018-12-13T20:48:03.210Z,22.62
2018-12-13T20:49:03.221Z,22.60
2018-12-13T20:50:03.401Z,22.72
2018-12-13T20:51:03.175Z,22.59
2018-12-13T20:52:03.202Z,22.59
2018-12-13T20:53:03.156Z,22.60
2018-12-13T20:54:03.177Z,22.62
2018-12-13T20:55:03.133Z,22.59
2018-12-13T20:56:03.127Z,22.57
2018-12-13T20:57:03.115Z,22.54
2018-12-13T20:58:03.104Z,22.59
2018-12-13T20:59:03.345Z,22.55
2018-12-13T21:00:03.110Z,22.59
2018-12-13T21:01:03.072Z,22.59
2018-12-13T21:02:03.060Z,22.55
2018-12-13T21:03:03.157Z,22.62
2018-12-13T21:04:03.068Z,22.60
2018-12-13T21:05:03.030Z,22.59
2018-12-13T21:06:03.015Z,22.53
2018-12-13T21:07:03.004Z,22.59
2018-12-13T21:08:02.993Z,22.55
2018-12-13T21:09:02.982Z,22.53
2018-12-13T21:10:02.974Z,22.62
2018-12-13T21:11:07.391Z,22.57
2018-12-13T21:12:02.950Z,22.53
2018-12-13T21:13:02.942Z,22.53
2018-12-13T21:14:02.929Z,22.51
2018-12-13T21:15:02.949Z,22.55
2018-12-13T21:16:02.965Z,22.62
2018-12-13T21:17:02.901Z,22.54
2018-12-13T21:18:02.923Z,22.59
2018-12-13T21:19:02.884Z,22.53
2018-12-13T21:20:02.867Z,22.55
2018-12-13T21:21:02.865Z,22.60
2018-12-13T21:22:02.845Z,22.54
2018-12-13T21:23:02.834Z,22.54
2018-12-13T21:24:02.824Z,22.57
2018-12-13T21:25:02.812Z,22.60
2018-12-13T21:26:02.800Z,22.50
2018-12-13T21:27:02.789Z,22.50
2018-12-13T21:28:02.787Z,22.55
2018-12-13T21:29:02.773Z,22.59
2018-12-13T21:30:02.766Z,22.54
2018-12-13T21:31:02.748Z,22.51
2018-12-13T21:32:02.771Z,22.54
2018-12-13T21:33:02.724Z,22.54
2018-12-13T21:34:02.719Z,22.47
2018-12-13T21:35:02.709Z,22.51
2018-12-13T21:36:02.693Z,22.53
2018-12-13T21:37:02.683Z,22.50
2018-12-13T21:38:02.701Z,22.48
2018-12-13T21:39:02.660Z,22.51
2018-12-13T21:40:02.652Z,22.51
2018-12-13T21:41:02.637Z,22.50
2018-12-13T21:42:02.638Z,22.50
2018-12-13T21:43:02.618Z,22.45
2018-12-13T21:44:02.640Z,22.51
2018-12-13T21:45:02.597Z,22.45
2018-12-13T21:46:02.591Z,22.48
2018-12-13T21:47:02.574Z,22.48
2018-12-13T21:48:02.595Z,22.48
2018-12-13T21:49:02.584Z,22.57
2018-12-13T21:50:03.179Z,22.57
2018-12-13T21:51:03.414Z,22.47
2018-12-13T21:52:02.520Z,22.54
2018-12-13T21:53:02.536Z,22.57
2018-12-13T21:54:02.501Z,22.60
2018-12-13T21:55:02.549Z,22.69
2018-12-13T21:56:03.264Z,22.65
2018-12-13T21:57:02.469Z,22.65
2018-12-13T21:58:02.457Z,22.73
2018-12-13T21:59:03.775Z,22.62
2018-12-13T22:00:02.439Z,22.75
2018-12-13T22:01:02.424Z,22.70
2018-12-13T22:02:02.447Z,22.73
2018-12-13T22:03:02.436Z,22.73
2018-12-13T22:04:02.400Z,22.81
2018-12-13T22:05:02.384Z,22.72
2018-12-13T22:06:02.375Z,22.72
2018-12-13T22:07:02.361Z,22.83
2018-12-13T22:08:02.354Z,22.84
2018-12-13T22:09:02.344Z,22.84
2018-12-13T22:10:02.330Z,22.91
2018-12-13T22:11:02.356Z,22.90
2018-12-13T22:12:02.307Z,22.88
2018-12-13T22:13:02.299Z,22.98
2018-12-13T22:14:02.357Z,22.91
2018-12-13T22:15:02.723Z,22.93
2018-12-13T22:16:02.299Z,22.94
2018-12-13T22:17:02.257Z,22.96
2018-12-13T22:18:02.246Z,23.02
2018-12-13T22:19:02.266Z,23.00
2018-12-13T22:20:02.253Z,22.98
2018-12-13T22:21:02.213Z,22.96
2018-12-13T22:22:02.202Z,22.98
2018-12-13T22:23:02.193Z,22.98
2018-12-13T22:24:02.181Z,22.93
2018-12-13T22:25:02.195Z,22.93
2018-12-13T22:26:02.164Z,22.93
2018-12-13T22:27:02.168Z,22.94
2018-12-13T22:28:02.140Z,22.88
2018-12-13T22:29:02.155Z,22.94
2018-12-13T22:30:02.146Z,22.93
2018-12-13T22:31:02.108Z,22.93
2018-12-13T22:32:02.095Z,22.98
2018-12-13T22:33:02.087Z,22.99
2018-12-13T22:34:02.074Z,23.03
2018-12-13T22:35:02.068Z,23.00
2018-12-13T22:36:02.054Z,22.98
2018-12-13T22:37:02.044Z,23.08
2018-12-13T22:38:02.034Z,23.08
2018-12-13T22:39:02.024Z,23.08
2018-12-13T22:40:02.013Z,23.20
2018-12-13T22:41:02.014Z,23.18
2018-12-13T22:42:01.992Z,23.23
2018-12-13T22:43:01.984Z,23.18
2018-12-13T22:44:01.970Z,23.25
2018-12-13T22:45:01.958Z,23.18
2018-12-13T22:46:01.947Z,23.37
2018-12-13T22:47:01.936Z,23.37
2018-12-13T22:48:01.927Z,23.32
2018-12-13T22:49:01.916Z,23.31
2018-12-13T22:50:01.908Z,23.37
2018-12-13T22:51:01.898Z,23.36
2018-12-13T22:52:01.884Z,23.34
2018-12-13T22:53:01.874Z,23.37
2018-12-13T22:54:01.864Z,23.40
2018-12-13T22:55:01.853Z,23.41
2018-12-13T22:56:01.842Z,23.39
2018-12-13T22:57:01.831Z,23.43
2018-12-13T22:58:01.825Z,23.47
2018-12-13T22:59:01.813Z,23.47
2018-12-13T23:00:01.801Z,23.48
2018-12-13T23:01:01.790Z,23.44
2018-12-13T23:02:01.782Z,23.54
2018-12-13T23:03:01.769Z,23.50
2018-12-13T23:04:01.756Z,23.54
2018-12-13T23:05:01.750Z,23.54
2018-12-13T23:06:01.736Z,23.58
2018-12-13T23:07:01.725Z,23.59
2018-12-13T23:08:01.713Z,23.56
2018-12-13T23:09:01.702Z,23.59
2018-12-13T23:10:01.696Z,23.59
2018-12-13T23:11:01.680Z,23.62
2018-12-13T23:12:01.671Z,23.58
2018-12-13T23:13:01.659Z,23.59
2018-12-13T23:14:01.649Z,23.58
2018-12-13T23:15:01.640Z,23.62
2018-12-13T23:16:01.627Z,23.63
2018-12-13T23:17:01.618Z,23.61
2018-12-13T23:18:01.607Z,23.62
2018-12-13T23:19:01.597Z,23.68
2018-12-13T23:20:01.633Z,23.63
2018-12-13T23:21:01.573Z,23.63
2018-12-13T23:22:01.565Z,23.68
2018-12-13T23:23:01.552Z,23.66
2018-12-13T23:24:01.543Z,23.66
2018-12-13T23:25:01.535Z,23.73
2018-12-13T23:26:01.530Z,23.68
2018-12-13T23:27:01.511Z,23.71
2018-12-13T23:28:01.501Z,23.66
2018-12-13T23:29:01.489Z,23.69
2018-12-13T23:30:01.480Z,23.63
2018-12-13T23:31:01.469Z,23.80
2018-12-13T23:32:01.458Z,23.76
2018-12-13T23:33:01.447Z,23.76
2018-12-13T23:34:01.438Z,23.66
2018-12-13T23:35:01.427Z,23.76
2018-12-13T23:36:01.415Z,23.71
2018-12-13T23:37:01.403Z,23.77
2018-12-13T23:38:01.401Z,23.87
2018-12-13T23:39:01.389Z,23.77
2018-12-13T23:40:01.378Z,23.80
2018-12-13T23:41:01.429Z,23.78
2018-12-13T23:42:01.360Z,23.81
2018-12-13T23:43:01.341Z,23.76
2018-12-13T23:44:01.329Z,23.81
2018-12-13T23:45:01.319Z,23.77
2018-12-13T23:46:01.313Z,23.73
2018-12-13T23:47:01.300Z,23.76
2018-12-13T23:48:01.292Z,23.76
2018-12-13T23:49:01.273Z,23.83
2018-12-13T23:50:01.265Z,23.77
2018-12-13T23:51:01.253Z,23.76
2018-12-13T23:52:01.242Z,23.84
2018-12-13T23:53:01.258Z,23.76
2018-12-13T23:54:01.222Z,23.80
2018-12-13T23:55:01.211Z,23.77
2018-12-13T23:56:01.201Z,23.73
2018-12-13T23:57:01.187Z,23.66
2018-12-13T23:58:01.180Z,23.65
2018-12-13T23:59:01.171Z,23.58
